Time;durP1;ratioP1;P1;durP2;ratioP2;P2;SDS_P1;SDS_P2;PMS_P1;PMS_P2;Temp;Humidity;BMP_temperature;BMP_pressure;BME280_temperature;BME280_humidity;BME280_pressure;Samples;Min_cycle;Max_cycle;Signal;HPM_P1;HPM_P2
2021/08/08 00:00:59;;;;;;;7.18;2.88;;;;;;;;;;5046557;28;20055;-62
2021/08/08 00:03:26;;;;;;;2.40;2.08;;;;;;;;;;5018490;28;20098;-62
2021/08/08 00:05:52;;;;;;;3.03;2.45;;;;;;;;;;5037075;28;20063;-61
2021/08/08 00:08:21;;;;;;;3.58;2.30;;;;;;;;;;5037411;28;20626;-58
2021/08/08 00:10:49;;;;;;;3.85;2.85;;;;;;;;;;5036108;28;20085;-61
2021/08/08 00:13:15;;;;;;;4.72;2.45;;;;;;;;;;5038750;28;20053;-60
2021/08/08 00:15:45;;;;;;;7.22;2.60;;;;;;;;;;5038642;28;20033;-60
2021/08/08 00:18:13;;;;;;;5.60;2.55;;;;;;;;;;5037664;28;20153;-60
2021/08/08 00:20:44;;;;;;;6.97;2.90;;;;;;;;;;5035112;28;20034;-61
2021/08/08 00:23:09;;;;;;;3.60;2.03;;;;;;;;;;5036882;28;20082;-60
2021/08/08 00:25:35;;;;;;;6.47;2.80;;;;;;;;;;5037832;28;20043;-60
2021/08/08 00:28:01;;;;;;;3.85;2.80;;;;;;;;;;5037751;28;20041;-61
2021/08/08 00:30:29;;;;;;;4.97;2.80;;;;;;;;;;5017366;28;20045;-60
2021/08/08 00:32:54;;;;;;;7.95;2.63;;;;;;;;;;5038087;28;20041;-60
2021/08/08 00:35:20;;;;;;;5.20;2.60;;;;;;;;;;5053104;28;21971;-61
2021/08/08 00:37:46;;;;;;;6.03;2.15;;;;;;;;;;5017936;28;20072;-60
2021/08/08 00:40:16;;;;;;;9.70;2.58;;;;;;;;;;5038587;28;20360;-61
2021/08/08 00:42:49;;;;;;;4.57;2.53;;;;;;;;;;5036832;28;20146;-60
2021/08/08 00:45:17;;;;;;;6.00;2.97;;;;;;;;;;5052686;28;20044;-61
2021/08/08 00:47:47;;;;;;;5.57;2.28;;;;;;;;;;5038436;28;20903;-60
2021/08/08 00:50:16;;;;;;;5.25;2.55;;;;;;;;;;5044379;28;20047;-59
2021/08/08 00:52:44;;;;;;;4.75;2.70;;;;;;;;;;5024264;28;20056;-59
2021/08/08 00:55:10;;;;;;;5.00;2.70;;;;;;;;;;5023878;28;20276;-63
2021/08/08 00:57:36;;;;;;;4.80;2.45;;;;;;;;;;5036959;28;20036;-56
2021/08/08 01:00:03;;;;;;;6.40;2.60;;;;;;;;;;5039025;28;20053;-60
2021/08/08 01:02:36;;;;;;;6.55;2.65;;;;;;;;;;5041823;28;20056;-63
2021/08/08 01:05:04;;;;;;;4.00;2.75;;;;;;;;;;5038489;28;20120;-61
2021/08/08 01:07:44;;;;;;;9.45;2.75;;;;;;;;;;5033856;28;20132;-61
2021/08/08 01:10:12;;;;;;;5.50;2.88;;;;;;;;;;5038139;28;20025;-60
2021/08/08 01:12:40;;;;;;;11.13;2.95;;;;;;;;;;5043586;28;20117;-60
2021/08/08 01:15:07;;;;;;;4.45;2.58;;;;;;;;;;5036373;28;20045;-60
2021/08/08 01:17:34;;;;;;;7.93;2.88;;;;;;;;;;5035440;28;20037;-62
2021/08/08 01:20:19;;;;;;;9.52;3.30;;;;;;;;;;5036956;28;20024;-60
2021/08/08 01:22:52;;;;;;;3.55;2.95;;;;;;;;;;5037374;28;20037;-60
2021/08/08 01:25:22;;;;;;;5.20;2.83;;;;;;;;;;5017630;28;20024;-61
2021/08/08 01:27:48;;;;;;;12.57;3.40;;;;;;;;;;5038249;28;20044;-60
2021/08/08 01:30:13;;;;;;;6.10;2.92;;;;;;;;;;5038932;28;20102;-60
2021/08/08 01:32:39;;;;;;;4.75;2.60;;;;;;;;;;5028190;28;21249;-60
2021/08/08 01:35:07;;;;;;;5.55;3.13;;;;;;;;;;5020513;28;20037;-59
2021/08/08 01:37:33;;;;;;;9.35;3.00;;;;;;;;;;5037793;28;20049;-60
2021/08/08 01:40:02;;;;;;;5.05;3.33;;;;;;;;;;5032467;28;20978;-60
2021/08/08 01:42:31;;;;;;;8.23;3.35;;;;;;;;;;5044963;28;20784;-60
2021/08/08 01:45:00;;;;;;;7.05;3.30;;;;;;;;;;5037879;28;20455;-61
2021/08/08 01:47:31;;;;;;;6.55;3.45;;;;;;;;;;5036183;28;20032;-62
2021/08/08 01:49:59;;;;;;;6.50;3.08;;;;;;;;;;5035792;28;20033;-61
2021/08/08 01:52:25;;;;;;;8.63;2.50;;;;;;;;;;5035263;28;20040;-60
2021/08/08 01:54:53;;;;;;;5.55;3.33;;;;;;;;;;5036379;28;20036;-61
2021/08/08 01:57:20;;;;;;;7.20;3.25;;;;;;;;;;5037346;28;20143;-60
2021/08/08 01:59:46;;;;;;;5.35;3.15;;;;;;;;;;5035172;28;20035;-60
2021/08/08 02:02:17;;;;;;;6.45;3.38;;;;;;;;;;5035915;28;20119;-60
2021/08/08 02:04:44;;;;;;;9.45;3.85;;;;;;;;;;5019662;28;20025;-60
2021/08/08 02:07:10;;;;;;;9.30;3.70;;;;;;;;;;5051043;28;20052;-60
2021/08/08 02:09:36;;;;;;;7.63;3.75;;;;;;;;;;5035276;28;20039;-60
2021/08/08 02:12:04;;;;;;;7.95;3.20;;;;;;;;;;5037665;28;20372;-62
2021/08/08 02:14:32;;;;;;;6.50;3.38;;;;;;;;;;5015334;28;20095;-61
2021/08/08 02:16:59;;;;;;;6.65;2.97;;;;;;;;;;5036905;28;20212;-62
2021/08/08 02:19:24;;;;;;;10.50;3.75;;;;;;;;;;5018383;28;20031;-60
2021/08/08 02:21:50;;;;;;;11.30;3.60;;;;;;;;;;5036549;28;20033;-61
2021/08/08 02:24:17;;;;;;;6.80;3.63;;;;;;;;;;5037757;28;20044;-61
2021/08/08 02:26:43;;;;;;;4.25;3.22;;;;;;;;;;5021103;28;20021;-62
2021/08/08 02:29:13;;;;;;;8.52;3.22;;;;;;;;;;5036482;28;20052;-61
2021/08/08 02:31:40;;;;;;;5.18;3.40;;;;;;;;;;5035263;28;20138;-61
2021/08/08 02:34:07;;;;;;;5.43;3.42;;;;;;;;;;5036529;28;21034;-60
2021/08/08 02:36:35;;;;;;;4.40;3.25;;;;;;;;;;5025705;28;20395;-62
2021/08/08 02:39:03;;;;;;;8.68;3.70;;;;;;;;;;5048845;28;20033;-61
2021/08/08 02:41:31;;;;;;;5.10;3.80;;;;;;;;;;5039811;28;20041;-61
2021/08/08 02:44:02;;;;;;;11.73;4.50;;;;;;;;;;5034149;28;20033;-61
2021/08/08 02:46:28;;;;;;;8.70;3.47;;;;;;;;;;5035253;28;20044;-61
2021/08/08 02:48:58;;;;;;;13.55;3.80;;;;;;;;;;5035678;28;20111;-61
2021/08/08 02:51:24;;;;;;;8.07;4.03;;;;;;;;;;5031210;28;20028;-61
2021/08/08 02:53:50;;;;;;;4.28;3.10;;;;;;;;;;5016485;28;20643;-61
2021/08/08 02:56:18;;;;;;;10.02;4.00;;;;;;;;;;5035579;28;20051;-61
2021/08/08 02:58:47;;;;;;;8.02;3.90;;;;;;;;;;5034362;28;20056;-62
2021/08/08 03:01:15;;;;;;;5.80;3.90;;;;;;;;;;5035995;28;20144;-61
2021/08/08 03:03:43;;;;;;;6.78;3.83;;;;;;;;;;5025297;28;20040;-61
2021/08/08 03:06:10;;;;;;;11.68;4.35;;;;;;;;;;5037220;28;20032;-61
2021/08/08 03:08:39;;;;;;;9.73;4.43;;;;;;;;;;5023595;28;20033;-62
2021/08/08 03:11:04;;;;;;;10.63;5.03;;;;;;;;;;5036297;28;20033;-61
2021/08/08 03:13:34;;;;;;;13.82;5.05;;;;;;;;;;5038159;28;20698;-62
2021/08/08 03:16:02;;;;;;;8.18;4.78;;;;;;;;;;5034443;28;20036;-61
2021/08/08 03:18:28;;;;;;;8.73;4.47;;;;;;;;;;5035434;28;20028;-62
2021/08/08 03:20:56;;;;;;;10.20;4.85;;;;;;;;;;5036367;28;20033;-62
2021/08/08 03:23:27;;;;;;;11.82;4.15;;;;;;;;;;5036592;28;20112;-61
2021/08/08 03:25:52;;;;;;;9.05;4.90;;;;;;;;;;5034910;28;20522;-61
2021/08/08 03:28:18;;;;;;;10.02;4.93;;;;;;;;;;5035642;28;20048;-62
2021/08/08 03:30:46;;;;;;;9.75;5.28;;;;;;;;;;5035732;28;20025;-62
2021/08/08 03:33:12;;;;;;;9.88;5.55;;;;;;;;;;5035895;28;20032;-61
2021/08/08 03:35:40;;;;;;;11.45;5.15;;;;;;;;;;5038479;28;20052;-61
2021/08/08 03:38:08;;;;;;;6.65;5.38;;;;;;;;;;5022487;28;20048;-62
2021/08/08 03:40:38;;;;;;;13.88;5.50;;;;;;;;;;5043908;28;20098;-62
2021/08/08 03:43:04;;;;;;;9.57;5.97;;;;;;;;;;5038640;28;20143;-61
2021/08/08 03:45:30;;;;;;;13.93;5.60;;;;;;;;;;5038797;28;20692;-61
2021/08/08 03:47:55;;;;;;;17.23;6.28;;;;;;;;;;5026486;28;20135;-61
2021/08/08 03:50:23;;;;;;;9.40;5.78;;;;;;;;;;5038293;28;20791;-61
2021/08/08 03:52:52;;;;;;;8.23;5.20;;;;;;;;;;5037553;28;20057;-61
2021/08/08 03:55:18;;;;;;;10.80;5.28;;;;;;;;;;5037540;28;20040;-62
2021/08/08 03:57:48;;;;;;;13.00;6.38;;;;;;;;;;5040007;28;20400;-61
2021/08/08 04:00:14;;;;;;;10.43;6.00;;;;;;;;;;5027849;28;20442;-61
2021/08/08 04:02:46;;;;;;;11.52;5.93;;;;;;;;;;5037736;28;20021;-62
2021/08/08 04:05:14;;;;;;;11.85;6.68;;;;;;;;;;5028200;28;20028;-62
2021/08/08 04:07:44;;;;;;;13.15;6.30;;;;;;;;;;5036520;28;20146;-62
2021/08/08 04:10:10;;;;;;;7.78;5.50;;;;;;;;;;5026830;28;20060;-62
2021/08/08 04:12:35;;;;;;;11.85;6.35;;;;;;;;;;5037654;28;20148;-61
2021/08/08 04:15:02;;;;;;;13.85;5.97;;;;;;;;;;5038126;28;20818;-61
2021/08/08 04:17:29;;;;;;;11.07;6.07;;;;;;;;;;5038600;28;20035;-62
2021/08/08 04:19:54;;;;;;;15.02;7.40;;;;;;;;;;5037307;28;20091;-61
2021/08/08 04:22:19;;;;;;;15.10;6.72;;;;;;;;;;5043208;28;20042;-62
2021/08/08 04:24:47;;;;;;;12.88;7.15;;;;;;;;;;5023351;28;20555;-62
2021/08/08 04:27:13;;;;;;;12.38;6.95;;;;;;;;;;5038196;28;20052;-61
2021/08/08 04:29:39;;;;;;;10.23;6.72;;;;;;;;;;5038133;28;20683;-62
2021/08/08 04:32:09;;;;;;;10.40;6.30;;;;;;;;;;5037493;28;20072;-62
2021/08/08 04:34:37;;;;;;;11.95;6.40;;;;;;;;;;5033714;28;20112;-61
2021/08/08 04:37:11;;;;;;;12.82;6.30;;;;;;;;;;5038742;28;20059;-60
2021/08/08 04:39:41;;;;;;;11.00;6.95;;;;;;;;;;5026346;28;20529;-62
2021/08/08 04:42:09;;;;;;;11.25;6.90;;;;;;;;;;5037278;28;20770;-62
2021/08/08 04:44:41;;;;;;;13.82;7.60;;;;;;;;;;5036725;28;20032;-61
2021/08/08 04:47:11;;;;;;;12.00;6.70;;;;;;;;;;5036846;28;20052;-61
2021/08/08 04:49:39;;;;;;;12.93;6.20;;;;;;;;;;5021611;28;20032;-61
2021/08/08 04:52:05;;;;;;;10.43;6.32;;;;;;;;;;5024059;28;20048;-60
2021/08/08 04:54:30;;;;;;;13.20;7.20;;;;;;;;;;5033672;28;20043;-62
2021/08/08 04:56:56;;;;;;;9.30;6.20;;;;;;;;;;5034209;28;20052;-60
2021/08/08 04:59:24;;;;;;;18.10;8.45;;;;;;;;;;5018461;28;20649;-63
2021/08/08 05:01:49;;;;;;;13.43;7.78;;;;;;;;;;5023922;28;20029;-61
2021/08/08 05:04:14;;;;;;;15.02;7.93;;;;;;;;;;5048113;28;20048;-62
2021/08/08 05:06:42;;;;;;;20.33;7.38;;;;;;;;;;5035643;28;20392;-61
2021/08/08 05:09:10;;;;;;;13.88;7.20;;;;;;;;;;5034471;28;20037;-62
2021/08/08 05:11:37;;;;;;;16.10;7.85;;;;;;;;;;5016176;28;20021;-62
2021/08/08 05:14:03;;;;;;;12.95;7.40;;;;;;;;;;5034932;28;20838;-62
2021/08/08 05:16:29;;;;;;;11.93;7.35;;;;;;;;;;5035401;28;20032;-61
2021/08/08 05:18:54;;;;;;;14.45;6.90;;;;;;;;;;5034849;28;20518;-62
2021/08/08 05:21:20;;;;;;;15.60;6.55;;;;;;;;;;5034383;28;20059;-62
2021/08/08 05:23:48;;;;;;;20.80;7.25;;;;;;;;;;5034862;28;20560;-62
2021/08/08 05:26:13;;;;;;;13.85;5.95;;;;;;;;;;5035212;28;20105;-62
2021/08/08 05:28:41;;;;;;;10.00;5.75;;;;;;;;;;5018943;28;20060;-61
2021/08/08 05:31:09;;;;;;;9.90;5.63;;;;;;;;;;5018174;28;20041;-63
2021/08/08 05:33:37;;;;;;;14.43;5.35;;;;;;;;;;5036972;28;20037;-62
2021/08/08 05:36:07;;;;;;;12.25;5.70;;;;;;;;;;5040462;28;20033;-62
2021/08/08 05:38:32;;;;;;;9.20;5.07;;;;;;;;;;5035495;28;20124;-61
2021/08/08 05:40:58;;;;;;;7.75;4.47;;;;;;;;;;5034889;28;20126;-62
2021/08/08 05:43:23;;;;;;;6.85;4.68;;;;;;;;;;5023865;28;20043;-62
2021/08/08 05:45:54;;;;;;;5.93;4.10;;;;;;;;;;5035528;28;20021;-62
2021/08/08 05:48:19;;;;;;;8.63;4.00;;;;;;;;;;5025087;28;20852;-62
2021/08/08 05:50:45;;;;;;;8.25;3.70;;;;;;;;;;5035795;28;20039;-63
2021/08/08 05:53:11;;;;;;;7.57;3.08;;;;;;;;;;5033008;28;20516;-61
2021/08/08 05:55:40;;;;;;;6.40;3.67;;;;;;;;;;5035888;28;20098;-62
2021/08/08 05:58:06;;;;;;;5.97;3.13;;;;;;;;;;5037834;28;20116;-62
2021/08/08 06:00:36;;;;;;;4.72;3.05;;;;;;;;;;5034158;28;20041;-62
2021/08/08 06:03:13;;;;;;;5.78;3.10;;;;;;;;;;5040685;28;20041;-62
2021/08/08 06:05:41;;;;;;;6.15;2.67;;;;;;;;;;5024989;28;20106;-62
2021/08/08 06:08:06;;;;;;;5.20;2.15;;;;;;;;;;5030579;28;20664;-63
2021/08/08 06:10:32;;;;;;;4.95;2.45;;;;;;;;;;5046963;28;20106;-61
2021/08/08 06:12:59;;;;;;;6.78;2.40;;;;;;;;;;5036902;28;20029;-61
2021/08/08 06:15:30;;;;;;;8.88;2.30;;;;;;;;;;5036319;28;20043;-61
2021/08/08 06:17:56;;;;;;;4.55;1.98;;;;;;;;;;5039487;28;20052;-61
2021/08/08 06:20:24;;;;;;;5.78;2.33;;;;;;;;;;5036382;28;20029;-62
2021/08/08 06:22:50;;;;;;;6.32;2.67;;;;;;;;;;5035845;28;20087;-60
2021/08/08 06:25:15;;;;;;;10.40;2.72;;;;;;;;;;5036288;28;22021;-60
2021/08/08 06:27:46;;;;;;;6.90;2.80;;;;;;;;;;5035601;28;20048;-60
2021/08/08 06:30:12;;;;;;;4.40;2.80;;;;;;;;;;5024670;28;20126;-60
2021/08/08 06:32:40;;;;;;;6.63;3.00;;;;;;;;;;5037086;28;20036;-59
2021/08/08 06:35:06;;;;;;;3.83;3.00;;;;;;;;;;5049502;28;20040;-58
2021/08/08 06:37:34;;;;;;;4.70;2.83;;;;;;;;;;5034269;28;20041;-59
2021/08/08 06:40:00;;;;;;;6.30;2.70;;;;;;;;;;5036966;28;21193;-61
2021/08/08 06:42:26;;;;;;;2.70;2.28;;;;;;;;;;5023867;28;20033;-60
2021/08/08 06:44:54;;;;;;;4.38;2.33;;;;;;;;;;5023241;28;20040;-60
2021/08/08 06:47:19;;;;;;;5.93;2.42;;;;;;;;;;5035497;28;20089;-59
2021/08/08 06:49:47;;;;;;;6.65;2.53;;;;;;;;;;5034892;28;20033;-60
2021/08/08 06:52:12;;;;;;;6.10;2.83;;;;;;;;;;5033257;28;20028;-60
2021/08/08 06:54:39;;;;;;;7.32;2.55;;;;;;;;;;5034012;28;20372;-59
2021/08/08 06:57:08;;;;;;;2.83;2.20;;;;;;;;;;5031900;28;20096;-59
2021/08/08 06:59:43;;;;;;;11.88;3.05;;;;;;;;;;5035684;28;20423;-58
2021/08/08 07:02:09;;;;;;;12.15;2.92;;;;;;;;;;5022085;28;20036;-59
2021/08/08 07:04:34;;;;;;;7.00;2.58;;;;;;;;;;5037217;28;20040;-59
2021/08/08 07:06:59;;;;;;;8.90;2.97;;;;;;;;;;5034671;28;20033;-59
2021/08/08 07:09:27;;;;;;;5.43;2.63;;;;;;;;;;5008150;28;20040;-59
2021/08/08 07:11:58;;;;;;;7.88;2.90;;;;;;;;;;5023800;28;20036;-59
2021/08/08 07:14:28;;;;;;;6.53;2.85;;;;;;;;;;5047606;28;20028;-58
2021/08/08 07:16:53;;;;;;;9.38;3.60;;;;;;;;;;5034598;28;20069;-60
2021/08/08 07:19:19;;;;;;;8.07;3.28;;;;;;;;;;5031731;28;20078;-59
2021/08/08 07:21:45;;;;;;;9.10;3.80;;;;;;;;;;5035249;28;20725;-59
2021/08/08 07:24:13;;;;;;;9.65;3.38;;;;;;;;;;5031957;28;20029;-58
2021/08/08 07:26:41;;;;;;;6.28;2.95;;;;;;;;;;5034182;28;20028;-58
2021/08/08 07:29:07;;;;;;;16.85;3.80;;;;;;;;;;5035906;28;20037;-58
2021/08/08 07:31:32;;;;;;;9.10;3.20;;;;;;;;;;5032979;28;20032;-58
2021/08/08 07:33:58;;;;;;;11.60;3.42;;;;;;;;;;5041576;28;20090;-61
2021/08/08 07:36:23;;;;;;;8.85;3.30;;;;;;;;;;5023278;28;20046;-59
2021/08/08 07:38:49;;;;;;;7.75;3.08;;;;;;;;;;5034319;28;20036;-59
2021/08/08 07:41:16;;;;;;;11.00;3.40;;;;;;;;;;5035129;28;20037;-59
2021/08/08 07:43:42;;;;;;;12.50;3.10;;;;;;;;;;5049464;28;20047;-60
2021/08/08 07:46:12;;;;;;;7.10;2.63;;;;;;;;;;5033067;28;20029;-60
2021/08/08 07:48:41;;;;;;;6.40;2.38;;;;;;;;;;5034746;28;20075;-61
2021/08/08 07:51:11;;;;;;;6.47;2.10;;;;;;;;;;5027777;28;21994;-60
2021/08/08 07:53:40;;;;;;;7.03;2.30;;;;;;;;;;5032194;28;20118;-59
2021/08/08 07:56:06;;;;;;;7.45;2.17;;;;;;;;;;5018325;28;20021;-60
2021/08/08 07:58:36;;;;;;;7.15;2.30;;;;;;;;;;5034814;28;20456;-61
2021/08/08 08:01:06;;;;;;;7.15;2.50;;;;;;;;;;5031857;28;20052;-61
2021/08/08 08:03:36;;;;;;;5.70;2.15;;;;;;;;;;5028807;28;20021;-59
2021/08/08 08:06:02;;;;;;;8.90;2.28;;;;;;;;;;5034952;28;20049;-62
2021/08/08 08:08:30;;;;;;;7.13;2.17;;;;;;;;;;5049303;28;20123;-61
2021/08/08 08:10:56;;;;;;;8.38;2.38;;;;;;;;;;5031911;28;20025;-61
2021/08/08 08:13:24;;;;;;;12.13;2.58;;;;;;;;;;5036619;28;20044;-60
2021/08/08 08:15:50;;;;;;;11.02;2.70;;;;;;;;;;5032358;28;20032;-60
2021/08/08 08:18:15;;;;;;;9.48;2.50;;;;;;;;;;5006687;28;20036;-61
2021/08/08 08:20:44;;;;;;;6.55;2.40;;;;;;;;;;5037604;28;20036;-61
2021/08/08 08:23:10;;;;;;;8.90;2.63;;;;;;;;;;5035743;28;20029;-61
2021/08/08 08:25:35;;;;;;;10.68;2.85;;;;;;;;;;5036998;28;20040;-61
2021/08/08 08:28:03;;;;;;;9.05;2.97;;;;;;;;;;5039327;28;20048;-60
2021/08/08 08:30:29;;;;;;;7.60;2.70;;;;;;;;;;5035795;28;20044;-63
2021/08/08 08:33:04;;;;;;;16.27;3.05;;;;;;;;;;5038226;28;20060;-63
2021/08/08 08:35:32;;;;;;;9.32;3.10;;;;;;;;;;5036073;28;20799;-61
2021/08/08 08:37:57;;;;;;;7.28;2.40;;;;;;;;;;5036412;28;21698;-62
2021/08/08 08:40:23;;;;;;;13.05;2.38;;;;;;;;;;5035829;28;20041;-62
2021/08/08 08:42:55;;;;;;;6.05;2.42;;;;;;;;;;5034777;28;20112;-63
2021/08/08 08:45:23;;;;;;;8.45;2.42;;;;;;;;;;5040495;28;20032;-63
2021/08/08 08:47:52;;;;;;;10.57;2.65;;;;;;;;;;5037322;28;20040;-61
2021/08/08 08:50:23;;;;;;;9.40;2.38;;;;;;;;;;5050908;28;20037;-64
2021/08/08 08:52:52;;;;;;;8.13;2.05;;;;;;;;;;5035859;28;20775;-63
2021/08/08 08:55:23;;;;;;;7.88;2.33;;;;;;;;;;5037342;28;20361;-62
2021/08/08 08:57:49;;;;;;;10.13;2.90;;;;;;;;;;5036434;28;20492;-62
2021/08/08 09:00:15;;;;;;;11.68;2.47;;;;;;;;;;5036940;28;20753;-62
2021/08/08 09:02:41;;;;;;;15.80;2.95;;;;;;;;;;5034512;28;20117;-61
2021/08/08 09:05:06;;;;;;;12.38;2.80;;;;;;;;;;5038238;28;20039;-63
2021/08/08 09:07:34;;;;;;;14.48;2.88;;;;;;;;;;5024076;28;20056;-64
2021/08/08 09:10:00;;;;;;;6.85;2.15;;;;;;;;;;5038450;28;20086;-62
2021/08/08 09:12:27;;;;;;;11.25;2.30;;;;;;;;;;5051787;28;20102;-62
2021/08/08 09:15:00;;;;;;;9.45;2.35;;;;;;;;;;5035468;28;20039;-63
2021/08/08 09:17:29;;;;;;;7.72;2.72;;;;;;;;;;5038112;28;20387;-63
2021/08/08 09:20:17;;;;;;;7.18;2.70;;;;;;;;;;5034706;28;21894;-63
2021/08/08 09:22:45;;;;;;;9.85;1.70;;;;;;;;;;5035965;28;20468;-63
2021/08/08 09:25:24;;;;;;;6.40;1.75;;;;;;;;;;5038437;28;20102;-63
2021/08/08 09:27:51;;;;;;;5.85;1.98;;;;;;;;;;5043028;28;20048;-62
2021/08/08 09:30:18;;;;;;;5.22;2.08;;;;;;;;;;5037237;28;20052;-62
2021/08/08 09:32:46;;;;;;;10.50;2.20;;;;;;;;;;5034523;28;20029;-62
2021/08/08 09:35:19;;;;;;;11.05;2.13;;;;;;;;;;5037243;28;20609;-63
2021/08/08 09:38:07;;;;;;;6.32;1.70;;;;;;;;;;5035660;28;20043;-62
2021/08/08 09:40:37;;;;;;;8.68;1.83;;;;;;;;;;5034079;28;20056;-63
2021/08/08 09:43:05;;;;;;;8.85;2.53;;;;;;;;;;5037504;28;20034;-63
2021/08/08 09:45:36;;;;;;;8.30;2.10;;;;;;;;;;5044167;28;20032;-62
2021/08/08 09:48:09;;;;;;;11.65;2.42;;;;;;;;;;5036536;28;20032;-63
2021/08/08 09:50:37;;;;;;;7.82;2.03;;;;;;;;;;5037517;28;20159;-61
2021/08/08 09:53:05;;;;;;;11.45;2.55;;;;;;;;;;5031284;28;20430;-64
2021/08/08 09:55:39;;;;;;;13.45;2.58;;;;;;;;;;5040692;28;20041;-62
2021/08/08 09:58:16;;;;;;;11.07;2.55;;;;;;;;;;5031471;28;20037;-63
2021/08/08 10:00:44;;;;;;;9.05;2.22;;;;;;;;;;5048266;28;20036;-63
2021/08/08 10:03:12;;;;;;;13.10;2.17;;;;;;;;;;5038236;28;20547;-63
2021/08/08 10:05:39;;;;;;;13.57;2.33;;;;;;;;;;5033805;28;20033;-63
2021/08/08 10:08:09;;;;;;;14.35;2.47;;;;;;;;;;5036415;28;20123;-62
2021/08/08 10:10:36;;;;;;;13.30;2.70;;;;;;;;;;5034107;28;20028;-63
2021/08/08 10:13:10;;;;;;;16.65;2.72;;;;;;;;;;5033658;28;20051;-63
2021/08/08 10:15:40;;;;;;;12.50;2.55;;;;;;;;;;5037760;28;20671;-63
2021/08/08 10:18:06;;;;;;;12.98;2.42;;;;;;;;;;5028844;28;20041;-65
2021/08/08 10:20:36;;;;;;;14.45;2.53;;;;;;;;;;5031608;28;20063;-63
2021/08/08 10:23:02;;;;;;;18.73;2.55;;;;;;;;;;5024082;28;20619;-64
2021/08/08 10:25:27;;;;;;;11.20;2.50;;;;;;;;;;5029245;28;20039;-62
2021/08/08 10:27:53;;;;;;;13.98;2.78;;;;;;;;;;5026303;28;20127;-63
2021/08/08 10:30:21;;;;;;;13.20;2.65;;;;;;;;;;5034675;28;20041;-63
2021/08/08 10:32:49;;;;;;;16.42;2.47;;;;;;;;;;5028826;28;20032;-65
2021/08/08 10:35:17;;;;;;;14.38;2.20;;;;;;;;;;5018991;28;20155;-62
2021/08/08 10:37:44;;;;;;;13.32;2.30;;;;;;;;;;5026222;28;20412;-63
2021/08/08 10:40:11;;;;;;;11.00;2.08;;;;;;;;;;5028350;28;21779;-62
2021/08/08 10:42:43;;;;;;;12.15;2.60;;;;;;;;;;5029970;28;20033;-64
2021/08/08 10:45:30;;;;;;;6.95;1.65;;;;;;;;;;5029843;28;20143;-64
2021/08/08 10:47:59;;;;;;;11.40;2.30;;;;;;;;;;5032281;28;20025;-62
2021/08/08 10:50:38;;;;;;;12.98;2.42;;;;;;;;;;5029965;28;22039;-61
2021/08/08 10:53:04;;;;;;;10.93;2.00;;;;;;;;;;5032612;28;20086;-63
2021/08/08 10:55:35;;;;;;;7.88;2.25;;;;;;;;;;5049881;28;20032;-62
2021/08/08 10:58:13;;;;;;;14.80;2.30;;;;;;;;;;5032371;28;20060;-61
2021/08/08 11:00:41;;;;;;;7.57;1.60;;;;;;;;;;5026466;28;20086;-63
2021/08/08 11:03:16;;;;;;;8.77;2.03;;;;;;;;;;5035430;28;20522;-62
2021/08/08 11:05:44;;;;;;;13.38;1.98;;;;;;;;;;5027557;28;20819;-62
2021/08/08 11:08:13;;;;;;;8.80;1.75;;;;;;;;;;5015340;28;20044;-62
2021/08/08 11:10:42;;;;;;;8.27;2.05;;;;;;;;;;5008906;28;20137;-62
2021/08/08 11:13:20;;;;;;;8.85;1.67;;;;;;;;;;5034559;28;20083;-63
2021/08/08 11:15:48;;;;;;;11.15;2.00;;;;;;;;;;5027654;28;20033;-63
2021/08/08 11:18:14;;;;;;;6.72;1.90;;;;;;;;;;5025160;28;20067;-61
2021/08/08 11:20:45;;;;;;;7.68;2.38;;;;;;;;;;5031012;28;20120;-62
2021/08/08 11:23:12;;;;;;;10.57;2.05;;;;;;;;;;5025979;28;20158;-62
2021/08/08 11:25:41;;;;;;;8.65;2.50;;;;;;;;;;5006258;28;20036;-63
2021/08/08 11:28:08;;;;;;;17.10;2.47;;;;;;;;;;5035176;28;20063;-63
2021/08/08 11:30:41;;;;;;;6.32;2.03;;;;;;;;;;5035448;28;21056;-64
2021/08/08 11:33:09;;;;;;;11.93;1.75;;;;;;;;;;5034098;28;20033;-63
2021/08/08 11:35:35;;;;;;;7.10;1.83;;;;;;;;;;5041464;28;22152;-62
2021/08/08 11:38:00;;;;;;;10.70;2.05;;;;;;;;;;5033445;28;20040;-63
2021/08/08 11:40:30;;;;;;;9.25;1.75;;;;;;;;;;5019338;28;20040;-62
2021/08/08 11:43:01;;;;;;;5.82;1.75;;;;;;;;;;5033800;28;20087;-64
2021/08/08 11:45:43;;;;;;;9.38;1.45;;;;;;;;;;5035231;28;20185;-63
2021/08/08 11:48:09;;;;;;;11.07;1.92;;;;;;;;;;5040945;28;20543;-62
2021/08/08 11:50:40;;;;;;;11.48;1.60;;;;;;;;;;5032206;28;20511;-61
2021/08/08 11:53:06;;;;;;;7.55;1.40;;;;;;;;;;5035880;28;20029;-62
2021/08/08 11:55:33;;;;;;;6.72;1.75;;;;;;;;;;5026997;28;20056;-62
2021/08/08 11:58:11;;;;;;;8.13;2.35;;;;;;;;;;5045075;28;20086;-62
2021/08/08 12:00:39;;;;;;;8.15;1.90;;;;;;;;;;5037697;28;20029;-62
2021/08/08 12:03:08;;;;;;;8.38;2.20;;;;;;;;;;5034421;28;20044;-62
2021/08/08 12:05:34;;;;;;;10.48;1.95;;;;;;;;;;5043989;28;20044;-61
2021/08/08 12:08:03;;;;;;;9.48;2.58;;;;;;;;;;5034788;28;20033;-64
2021/08/08 12:10:34;;;;;;;7.82;2.03;;;;;;;;;;5037307;28;20025;-61
2021/08/08 12:13:14;;;;;;;7.55;1.90;;;;;;;;;;5037041;28;20408;-69
2021/08/08 12:15:39;;;;;;;11.43;1.90;;;;;;;;;;5038359;28;20028;-63
2021/08/08 12:18:05;;;;;;;7.85;1.63;;;;;;;;;;5036536;28;20059;-62
2021/08/08 12:20:34;;;;;;;13.35;2.13;;;;;;;;;;5053308;28;20931;-64
2021/08/08 12:23:03;;;;;;;9.48;1.73;;;;;;;;;;5016852;28;20040;-64
2021/08/08 12:25:29;;;;;;;5.47;1.85;;;;;;;;;;5040305;28;20040;-61
2021/08/08 12:27:54;;;;;;;9.98;1.90;;;;;;;;;;5038778;28;20048;-62
2021/08/08 12:30:22;;;;;;;6.25;2.00;;;;;;;;;;5027360;28;20067;-64
2021/08/08 12:32:48;;;;;;;12.68;1.95;;;;;;;;;;5018429;28;20063;-62
2021/08/08 12:35:15;;;;;;;6.63;1.95;;;;;;;;;;5037494;28;20051;-63
2021/08/08 12:37:46;;;;;;;15.30;2.08;;;;;;;;;;5035172;28;20529;-64
2021/08/08 12:40:16;;;;;;;6.85;1.90;;;;;;;;;;5039330;28;20076;-63
2021/08/08 12:42:44;;;;;;;11.27;1.83;;;;;;;;;;5037053;28;20040;-62
2021/08/08 12:45:13;;;;;;;11.40;1.92;;;;;;;;;;5035522;28;20113;-62
2021/08/08 12:47:41;;;;;;;8.70;2.05;;;;;;;;;;5038733;28;20821;-65
2021/08/08 12:50:15;;;;;;;11.65;1.85;;;;;;;;;;5038516;28;20095;-61
2021/08/08 12:52:43;;;;;;;7.68;1.70;;;;;;;;;;5036237;28;20044;-62
2021/08/08 12:55:12;;;;;;;10.52;2.10;;;;;;;;;;5036485;28;20557;-64
2021/08/08 12:57:40;;;;;;;7.63;1.52;;;;;;;;;;5043697;28;20087;-65
2021/08/08 13:00:09;;;;;;;6.22;1.60;;;;;;;;;;5043298;28;20116;-63
2021/08/08 13:02:37;;;;;;;10.32;2.40;;;;;;;;;;5037045;28;20029;-64
2021/08/08 13:05:03;;;;;;;8.88;1.98;;;;;;;;;;5038371;28;20504;-63
2021/08/08 13:07:30;;;;;;;8.85;1.92;;;;;;;;;;5039486;28;21890;-63
2021/08/08 13:09:56;;;;;;;7.10;1.80;;;;;;;;;;5037481;28;20082;-63
2021/08/08 13:12:21;;;;;;;12.40;2.28;;;;;;;;;;5038529;28;20025;-63
2021/08/08 13:14:47;;;;;;;6.07;1.90;;;;;;;;;;5042633;28;20098;-65
2021/08/08 13:17:13;;;;;;;10.27;2.30;;;;;;;;;;5035107;28;20166;-64
2021/08/08 13:19:39;;;;;;;7.28;1.63;;;;;;;;;;5036036;28;20488;-63
2021/08/08 13:22:09;;;;;;;13.30;1.58;;;;;;;;;;5041442;28;20028;-64
2021/08/08 13:24:36;;;;;;;7.72;1.85;;;;;;;;;;5041953;28;20198;-64
2021/08/08 13:27:02;;;;;;;10.00;2.40;;;;;;;;;;5037462;28;22088;-63
2021/08/08 13:29:29;;;;;;;7.85;1.75;;;;;;;;;;5036535;28;20049;-63
2021/08/08 13:31:58;;;;;;;7.47;1.80;;;;;;;;;;5037948;28;20894;-64
2021/08/08 13:34:23;;;;;;;9.50;1.40;;;;;;;;;;5037309;28;20025;-64
2021/08/08 13:36:51;;;;;;;9.35;1.83;;;;;;;;;;5038795;28;20040;-63
2021/08/08 13:39:17;;;;;;;4.88;1.60;;;;;;;;;;5033878;28;20028;-63
2021/08/08 13:41:42;;;;;;;7.95;1.70;;;;;;;;;;5020728;28;21895;-63
2021/08/08 13:44:10;;;;;;;5.32;1.70;;;;;;;;;;5033646;28;20479;-64
2021/08/08 13:46:36;;;;;;;6.43;1.60;;;;;;;;;;5034547;28;20040;-63
2021/08/08 13:49:02;;;;;;;7.05;1.83;;;;;;;;;;5018422;28;20033;-63
2021/08/08 13:51:27;;;;;;;7.32;1.52;;;;;;;;;;5036834;28;20029;-63
2021/08/08 13:53:57;;;;;;;8.32;1.77;;;;;;;;;;5035460;28;20041;-63
2021/08/08 13:56:22;;;;;;;5.25;1.65;;;;;;;;;;5036157;28;20037;-64
2021/08/08 13:58:50;;;;;;;6.32;1.77;;;;;;;;;;5035838;28;20036;-64
2021/08/08 14:01:19;;;;;;;6.72;1.70;;;;;;;;;;5051851;28;20047;-62
2021/08/08 14:03:44;;;;;;;4.97;1.60;;;;;;;;;;5029413;28;20041;-64
2021/08/08 14:06:09;;;;;;;6.65;1.25;;;;;;;;;;5017866;28;20059;-65
2021/08/08 14:08:35;;;;;;;5.28;1.55;;;;;;;;;;5033646;28;20464;-61
2021/08/08 14:11:04;;;;;;;5.03;1.63;;;;;;;;;;5034004;28;20036;-63
2021/08/08 14:13:29;;;;;;;5.03;1.40;;;;;;;;;;5032892;28;20120;-64
2021/08/08 14:15:57;;;;;;;8.30;1.50;;;;;;;;;;5034845;28;20860;-61
2021/08/08 14:18:23;;;;;;;8.85;1.35;;;;;;;;;;5032913;28;20448;-65
2021/08/08 14:20:49;;;;;;;7.28;1.58;;;;;;;;;;5035278;28;20036;-64
2021/08/08 14:23:15;;;;;;;4.53;0.95;;;;;;;;;;5034958;28;20033;-62
2021/08/08 14:25:43;;;;;;;6.45;1.38;;;;;;;;;;5034560;28;20039;-62
2021/08/08 14:28:09;;;;;;;7.63;1.60;;;;;;;;;;5024190;28;20122;-64
2021/08/08 14:30:35;;;;;;;6.40;1.48;;;;;;;;;;5034018;28;20045;-63
2021/08/08 14:33:00;;;;;;;3.97;1.40;;;;;;;;;;5033017;28;20032;-63
2021/08/08 14:35:28;;;;;;;5.18;1.35;;;;;;;;;;5033842;28;20211;-63
2021/08/08 14:37:54;;;;;;;9.20;1.83;;;;;;;;;;5032109;28;20036;-64
2021/08/08 14:40:22;;;;;;;10.15;1.63;;;;;;;;;;5006575;28;20549;-64
2021/08/08 14:42:50;;;;;;;8.75;1.90;;;;;;;;;;5023216;28;20147;-64